Weather at Mabalauta Airport

Public forecast

Using degrees Celsius for public forecast. Weather courtesy of forecast.io.

Closest aviation weather report (METAR) to Mabalauta Airport

Report is more than 6 hours old.

Closest report is Buffalo Range Airport, 54.9 nm (101.7 km) N. Retrieved 2021/04/07 09:00 UTC (2 months ago):

FVCZ 070900Z 12005KT CAVOK 27/14 Q1027

Closest aviation forecast (TAF) to Mabalauta Airport

Forecast is more than 12 hours old.

Closest forecast is Buffalo Range Airport, 54.9 nm (101.7 km) N. Retrieved 2015/02/14 05:42 UTC (6 years ago):

TAF FVCZ 140400Z 1405/1515 VRB04KT CAVOK